sensor_id;sensor_type;location;lat;lon;timestamp;pressure;altitude;pressure_sealevel;temperature;humidity
30614;BME280;17381;51.690;5.270;2023-05-19T00:01:53;102674.84;;;12.79;57.84
30614;BME280;17381;51.690;5.270;2023-05-19T00:04:32;102670.50;;;12.75;57.97
30614;BME280;17381;51.690;5.270;2023-05-19T00:07:17;102679.31;;;12.66;58.06
30614;BME280;17381;51.690;5.270;2023-05-19T00:10:22;102669.69;;;12.61;58.11
30614;BME280;17381;51.690;5.270;2023-05-19T00:13:41;102674.06;;;12.63;58.47
30614;BME280;17381;51.690;5.270;2023-05-19T00:16:32;102669.69;;;12.62;58.33
30614;BME280;17381;51.690;5.270;2023-05-19T00:19:10;102653.88;;;12.53;58.63
30614;BME280;17381;51.690;5.270;2023-05-19T00:21:59;102656.50;;;12.58;58.68
30614;BME280;17381;51.690;5.270;2023-05-19T00:24:56;102646.00;;;12.49;58.65
30614;BME280;17381;51.690;5.270;2023-05-19T00:27:55;102635.53;;;12.30;58.66
30614;BME280;17381;51.690;5.270;2023-05-19T00:30:53;102651.31;;;12.36;58.85
30614;BME280;17381;51.690;5.270;2023-05-19T00:34:08;102650.47;;;12.25;59.01
30614;BME280;17381;51.690;5.270;2023-05-19T00:36:55;102645.22;;;12.20;59.41
30614;BME280;17381;51.690;5.270;2023-05-19T00:39:50;102648.75;;;12.16;59.33
30614;BME280;17381;51.690;5.270;2023-05-19T00:42:50;102652.28;;;12.05;59.40
30614;BME280;17381;51.690;5.270;2023-05-19T00:46:13;102656.72;;;12.06;59.54
30614;BME280;17381;51.690;5.270;2023-05-19T00:49:08;102626.88;;;11.88;59.48
30614;BME280;17381;51.690;5.270;2023-05-19T00:52:09;102654.94;;;12.02;60.04
30614;BME280;17381;51.690;5.270;2023-05-19T00:55:14;102651.44;;;11.95;59.93
30614;BME280;17381;51.690;5.270;2023-05-19T00:58:34;102651.44;;;11.83;59.89
30614;BME280;17381;51.690;5.270;2023-05-19T01:01:07;102653.19;;;11.79;60.35
30614;BME280;17381;51.690;5.270;2023-05-19T01:03:54;102647.94;;;11.73;60.23
30614;BME280;17381;51.690;5.270;2023-05-19T01:07:00;102652.31;;;11.78;60.34
30614;BME280;17381;51.690;5.270;2023-05-19T01:09:39;102634.78;;;11.61;60.22
30614;BME280;17381;51.690;5.270;2023-05-19T01:12:28;102648.84;;;11.64;60.60
30614;BME280;17381;51.690;5.270;2023-05-19T01:15:15;102656.75;;;11.60;60.71
30614;BME280;17381;51.690;5.270;2023-05-19T01:31:08;102651.47;;;11.35;61.56
30614;BME280;17381;51.690;5.270;2023-05-19T01:34:25;102619.00;;;11.11;61.53
30614;BME280;17381;51.690;5.270;2023-05-19T01:37:17;102650.56;;;11.25;61.66
30614;BME280;17381;51.690;5.270;2023-05-19T01:40:00;102633.91;;;11.22;61.31
30614;BME280;17381;51.690;5.270;2023-05-19T01:42:51;102643.59;;;11.26;61.59
30614;BME280;17381;51.690;5.270;2023-05-19T01:45:36;102638.28;;;11.23;61.62
30614;BME280;17381;51.690;5.270;2023-05-19T01:48:46;102633.94;;;11.23;61.87
30614;BME280;17381;51.690;5.270;2023-05-19T01:51:30;102633.91;;;11.22;61.91
30614;BME280;17381;51.690;5.270;2023-05-19T01:54:14;102636.53;;;11.28;61.83
30614;BME280;17381;51.690;5.270;2023-05-19T01:57:29;102630.41;;;11.29;61.95
30614;BME280;17381;51.690;5.270;2023-05-19T02:11:24;102518.97;;;10.41;62.50
30614;BME280;17381;51.690;5.270;2023-05-19T02:14:24;102622.50;;;10.92;62.54
30614;BME280;17381;51.690;5.270;2023-05-19T02:17:25;102636.53;;;10.96;62.83
30614;BME280;17381;51.690;5.270;2023-05-19T02:20:15;102632.13;;;10.93;62.96
30614;BME280;17381;51.690;5.270;2023-05-19T02:22:56;102619.84;;;10.86;62.82
30614;BME280;17381;51.690;5.270;2023-05-19T02:25:59;102625.97;;;10.88;63.05
30614;BME280;17381;51.690;5.270;2023-05-19T02:28:48;102605.78;;;10.76;63.37
30614;BME280;17381;51.690;5.270;2023-05-19T02:31:40;102615.44;;;10.80;63.43
30614;BME280;17381;51.690;5.270;2023-05-19T02:34:19;102608.44;;;10.72;63.68
30614;BME280;17381;51.690;5.270;2023-05-19T02:37:15;102596.16;;;10.72;63.19
30614;BME280;17381;51.690;5.270;2023-05-19T02:40:15;102613.69;;;10.78;63.71
30614;BME280;17381;51.690;5.270;2023-05-19T02:43:25;102613.66;;;10.73;63.63
30614;BME280;17381;51.690;5.270;2023-05-19T02:46:09;102607.53;;;10.69;64.21
30614;BME280;17381;51.690;5.270;2023-05-19T02:49:05;102609.25;;;10.66;64.13
30614;BME280;17381;51.690;5.270;2023-05-19T02:52:41;102596.13;;;10.63;64.18
30614;BME280;17381;51.690;5.270;2023-05-19T02:55:41;102538.13;;;10.17;64.18
30614;BME280;17381;51.690;5.270;2023-05-19T02:58:45;102610.97;;;10.53;64.74
30614;BME280;17381;51.690;5.270;2023-05-19T03:01:49;102606.63;;;10.54;64.62
30614;BME280;17381;51.690;5.270;2023-05-19T03:04:27;102608.38;;;10.52;64.99
30614;BME280;17381;51.690;5.270;2023-05-19T03:07:07;102603.97;;;10.51;64.80
30614;BME280;17381;51.690;5.270;2023-05-19T03:10:02;102607.50;;;10.48;64.75
30614;BME280;17381;51.690;5.270;2023-05-19T03:13:01;102572.38;;;10.28;65.28
30614;BME280;17381;51.690;5.270;2023-05-19T03:15:55;102592.56;;;10.38;64.83
30614;BME280;17381;51.690;5.270;2023-05-19T03:18:43;102606.59;;;10.47;64.93
30614;BME280;17381;51.690;5.270;2023-05-19T03:21:39;102609.22;;;10.49;64.79
30614;BME280;17381;51.690;5.270;2023-05-19T03:24:24;102610.13;;;10.48;64.83
30614;BME280;17381;51.690;5.270;2023-05-19T03:27:11;102599.56;;;10.42;64.88
30614;BME280;17381;51.690;5.270;2023-05-19T03:33:27;102589.91;;;10.35;65.19
30614;BME280;17381;51.690;5.270;2023-05-19T03:36:21;102596.91;;;10.37;65.26
30614;BME280;17381;51.690;5.270;2023-05-19T03:38:54;102533.66;;;9.99;65.31
30614;BME280;17381;51.690;5.270;2023-05-19T03:41:47;102603.94;;;10.40;64.97
30614;BME280;17381;51.690;5.270;2023-05-19T03:44:37;102602.19;;;10.36;65.32
30614;BME280;17381;51.690;5.270;2023-05-19T03:47:26;102598.66;;;10.37;65.36
30614;BME280;17381;51.690;5.270;2023-05-19T03:50:44;102606.56;;;10.34;65.81
30614;BME280;17381;51.690;5.270;2023-05-19T03:53:41;102584.56;;;10.19;65.84
30614;BME280;17381;51.690;5.270;2023-05-19T03:56:27;102583.66;;;10.16;65.76
30614;BME280;17381;51.690;5.270;2023-05-19T03:58:58;102609.09;;;10.24;66.10
30614;BME280;17381;51.690;5.270;2023-05-19T04:01:48;102606.47;;;10.21;65.87
30614;BME280;17381;51.690;5.270;2023-05-19T04:04:30;102565.19;;;9.93;65.90
30614;BME280;17381;51.690;5.270;2023-05-19T04:07:25;102613.50;;;10.22;65.59
30614;BME280;17381;51.690;5.270;2023-05-19T04:10:29;102611.75;;;10.23;65.91
30614;BME280;17381;51.690;5.270;2023-05-19T04:16:23;102559.91;;;9.91;65.59
30614;BME280;17381;51.690;5.270;2023-05-19T04:19:12;102609.91;;;10.14;66.05
30614;BME280;17381;51.690;5.270;2023-05-19T04:22:03;102588.00;;;10.04;66.00
30614;BME280;17381;51.690;5.270;2023-05-19T04:24:41;102571.28;;;9.90;65.95
30614;BME280;17381;51.690;5.270;2023-05-19T04:27:31;102616.94;;;10.17;66.28
30614;BME280;17381;51.690;5.270;2023-05-19T04:30:14;102597.66;;;10.09;66.43
30614;BME280;17381;51.690;5.270;2023-05-19T04:33:18;102604.63;;;10.07;66.15
30614;BME280;17381;51.690;5.270;2023-05-19T04:36:23;102603.81;;;10.12;66.63
30614;BME280;17381;51.690;5.270;2023-05-19T04:39:44;102605.53;;;10.12;66.93
30614;BME280;17381;51.690;5.270;2023-05-19T04:42:35;102597.63;;;10.02;66.63
30614;BME280;17381;51.690;5.270;2023-05-19T04:45:42;102622.16;;;10.04;67.00
30614;BME280;17381;51.690;5.270;2023-05-19T04:48:30;102622.16;;;10.08;66.66
30614;BME280;17381;51.690;5.270;2023-05-19T04:51:10;102621.31;;;10.16;66.90
30614;BME280;17381;51.690;5.270;2023-05-19T04:54:00;102618.72;;;10.21;66.67
30614;BME280;17381;51.690;5.270;2023-05-19T04:57:03;102604.69;;;10.13;66.83
30614;BME280;17381;51.690;5.270;2023-05-19T05:00:14;102625.75;;;10.25;67.13
30614;BME280;17381;51.690;5.270;2023-05-19T05:03:25;102615.25;;;10.23;67.49
30614;BME280;17381;51.690;5.270;2023-05-19T05:06:13;102602.09;;;10.17;67.31
30614;BME280;17381;51.690;5.270;2023-05-19T05:09:10;102549.41;;;9.87;67.25
30614;BME280;17381;51.690;5.270;2023-05-19T05:12:04;102626.69;;;10.30;66.88
30614;BME280;17381;51.690;5.270;2023-05-19T05:14:46;102548.50;;;9.85;67.00
30614;BME280;17381;51.690;5.270;2023-05-19T05:17:28;102511.63;;;9.61;67.00
30614;BME280;17381;51.690;5.270;2023-05-19T05:20:08;102627.56;;;10.32;67.15
30614;BME280;17381;51.690;5.270;2023-05-19T05:22:50;102638.06;;;10.29;67.28
30614;BME280;17381;51.690;5.270;2023-05-19T05:25:30;102636.31;;;10.28;67.56
30614;BME280;17381;51.690;5.270;2023-05-19T05:28:22;102630.19;;;10.31;67.27
30614;BME280;17381;51.690;5.270;2023-05-19T05:31:18;102638.13;;;10.38;66.99
30614;BME280;17381;51.690;5.270;2023-05-19T05:34:09;102637.25;;;10.41;67.08
30614;BME280;17381;51.690;5.270;2023-05-19T05:44:24;102638.09;;;10.40;67.40
30614;BME280;17381;51.690;5.270;2023-05-19T05:47:07;102638.16;;;10.46;67.59
30614;BME280;17381;51.690;5.270;2023-05-19T05:50:01;102620.59;;;10.40;67.06
30614;BME280;17381;51.690;5.270;2023-05-19T05:53:08;102639.94;;;10.61;67.72
30614;BME280;17381;51.690;5.270;2023-05-19T05:56:04;102639.09;;;10.69;67.31
30614;BME280;17381;51.690;5.270;2023-05-19T06:03:07;102612.75;;;10.60;67.61
30614;BME280;17381;51.690;5.270;2023-05-19T06:05:52;102640.88;;;10.80;67.17
30614;BME280;17381;51.690;5.270;2023-05-19T06:08:49;102638.25;;;10.86;67.37
30614;BME280;17381;51.690;5.270;2023-05-19T06:11:39;102641.78;;;10.94;67.48
30614;BME280;17381;51.690;5.270;2023-05-19T06:14:33;102642.69;;;11.05;67.16
30614;BME280;17381;51.690;5.270;2023-05-19T06:20:57;102633.91;;;11.12;67.24
30614;BME280;17381;51.690;5.270;2023-05-19T06:23:43;102611.09;;;11.11;67.09
30614;BME280;17381;51.690;5.270;2023-05-19T06:26:45;102639.19;;;11.40;66.88
30614;BME280;17381;51.690;5.270;2023-05-19T06:29:48;102645.31;;;11.45;66.94
30614;BME280;17381;51.690;5.270;2023-05-19T06:32:29;102598.84;;;11.26;66.60
30614;BME280;17381;51.690;5.270;2023-05-19T06:35:07;102633.03;;;11.55;66.71
30614;BME280;17381;51.690;5.270;2023-05-19T06:38:17;102650.56;;;11.67;66.40
30614;BME280;17381;51.690;5.270;2023-05-19T06:41:14;102637.41;;;11.70;66.35
30614;BME280;17381;51.690;5.270;2023-05-19T06:43:52;102646.16;;;11.81;66.39
30614;BME280;17381;51.690;5.270;2023-05-19T06:46:37;102633.91;;;11.80;66.28
30614;BME280;17381;51.690;5.270;2023-05-19T06:49:24;102642.69;;;11.91;65.92
30614;BME280;17381;51.690;5.270;2023-05-19T06:52:15;102647.06;;;11.94;66.08
30614;BME280;17381;51.690;5.270;2023-05-19T06:54:54;102625.13;;;11.89;66.01
30614;BME280;17381;51.690;5.270;2023-05-19T06:57:27;102636.50;;;12.03;66.03
30614;BME280;17381;51.690;5.270;2023-05-19T07:00:10;102638.25;;;12.04;65.89
30614;BME280;17381;51.690;5.270;2023-05-19T07:03:22;102630.31;;;12.10;65.93
30614;BME280;17381;51.690;5.270;2023-05-19T07:09:25;102641.69;;;12.26;66.12
30614;BME280;17381;51.690;5.270;2023-05-19T07:18:37;102631.03;;;12.49;65.82
30614;BME280;17381;51.690;5.270;2023-05-19T07:21:31;102638.88;;;12.64;65.73
30614;BME280;17381;51.690;5.270;2023-05-19T07:24:59;102632.69;;;12.73;65.31
30614;BME280;17381;51.690;5.270;2023-05-19T07:28:27;102630.03;;;12.78;65.41
30614;BME280;17381;51.690;5.270;2023-05-19T07:31:29;102536.22;;;12.26;65.15
30614;BME280;17381;51.690;5.270;2023-05-19T07:34:10;102628.22;;;12.84;65.09
30614;BME280;17381;51.690;5.270;2023-05-19T07:37:20;102587.00;;;12.65;64.75
30614;BME280;17381;51.690;5.270;2023-05-19T07:39:57;102634.28;;;12.99;64.54
30614;BME280;17381;51.690;5.270;2023-05-19T07:42:35;102626.38;;;12.97;64.26
30614;BME280;17381;51.690;5.270;2023-05-19T07:45:01;102629.84;;;13.04;64.29
30614;BME280;17381;51.690;5.270;2023-05-19T07:47:34;102607.00;;;12.98;64.14
30614;BME280;17381;51.690;5.270;2023-05-19T07:50:00;102591.22;;;12.87;64.14
30614;BME280;17381;51.690;5.270;2023-05-19T07:52:35;102613.94;;;13.10;63.87
30614;BME280;17381;51.690;5.270;2023-05-19T07:55:38;102633.22;;;13.23;63.31
30614;BME280;17381;51.690;5.270;2023-05-19T07:58:15;102625.25;;;13.26;63.72
30614;BME280;17381;51.690;5.270;2023-05-19T08:01:11;102605.03;;;13.23;63.68
30614;BME280;17381;51.690;5.270;2023-05-19T08:04:14;102629.66;;;13.35;63.87
30614;BME280;17381;51.690;5.270;2023-05-19T08:06:48;102627.00;;;13.35;63.68
30614;BME280;17381;51.690;5.270;2023-05-19T08:09:46;102616.41;;;13.38;63.61
30614;BME280;17381;51.690;5.270;2023-05-19T08:12:30;102621.56;;;13.53;63.07
30614;BME280;17381;51.690;5.270;2023-05-19T08:15:49;102611.75;;;13.66;63.07
30614;BME280;17381;51.690;5.270;2023-05-19T08:18:39;102608.16;;;13.71;63.07
30614;BME280;17381;51.690;5.270;2023-05-19T08:21:26;102610.59;;;13.91;62.81
30614;BME280;17381;51.690;5.270;2023-05-19T08:24:00;102593.84;;;13.92;61.94
30614;BME280;17381;51.690;5.270;2023-05-19T08:37:18;102597.50;;;14.50;61.82
30614;BME280;17381;51.690;5.270;2023-05-19T08:40:34;102598.22;;;14.65;61.53
30614;BME280;17381;51.690;5.270;2023-05-19T08:43:50;102591.84;;;14.76;60.52
30614;BME280;17381;51.690;5.270;2023-05-19T08:46:35;102586.44;;;14.86;60.30
30614;BME280;17381;51.690;5.270;2023-05-19T08:49:45;102579.19;;;14.98;59.52
30614;BME280;17381;51.690;5.270;2023-05-19T08:56:44;102576.28;;;15.14;58.00
30614;BME280;17381;51.690;5.270;2023-05-19T09:00:10;102566.44;;;15.20;56.58
30614;BME280;17381;51.690;5.270;2023-05-19T09:07:27;102523.31;;;15.12;56.49
30614;BME280;17381;51.690;5.270;2023-05-19T09:17:15;102550.34;;;15.79;55.78
30614;BME280;17381;51.690;5.270;2023-05-19T09:20:29;102556.28;;;15.94;55.69
30614;BME280;17381;51.690;5.270;2023-05-19T09:23:28;102542.03;;;15.98;53.86
30614;BME280;17381;51.690;5.270;2023-05-19T09:26:38;102546.19;;;16.11;52.85
30614;BME280;17381;51.690;5.270;2023-05-19T09:29:25;102510.16;;;16.01;53.61
30614;BME280;17381;51.690;5.270;2023-05-19T10:14:15;102527.03;;;19.43;42.78
30614;BME280;17381;51.690;5.270;2023-05-19T10:16:59;102521.13;;;19.58;41.65
30614;BME280;17381;51.690;5.270;2023-05-19T10:19:49;102531.34;;;19.72;41.21
30614;BME280;17381;51.690;5.270;2023-05-19T10:22:32;102477.13;;;19.47;40.94
30614;BME280;17381;51.690;5.270;2023-05-19T10:25:37;102473.22;;;19.55;42.21
30614;BME280;17381;51.690;5.270;2023-05-19T10:29:03;102514.84;;;20.08;41.62
30614;BME280;17381;51.690;5.270;2023-05-19T10:32:25;102508.81;;;20.26;42.22
30614;BME280;17381;51.690;5.270;2023-05-19T10:39:35;102509.91;;;20.65;40.41
30614;BME280;17381;51.690;5.270;2023-05-19T10:42:36;102499.34;;;20.84;40.25
30614;BME280;17381;51.690;5.270;2023-05-19T10:45:51;102502.97;;;21.03;39.45
30614;BME280;17381;51.690;5.270;2023-05-19T10:48:43;102507.66;;;21.19;40.41
30614;BME280;17381;51.690;5.270;2023-05-19T10:54:55;102474.00;;;21.54;41.89
30614;BME280;17381;51.690;5.270;2023-05-19T11:01:39;102478.09;;;21.82;38.95
30614;BME280;17381;51.690;5.270;2023-05-19T11:04:17;102453.47;;;21.73;38.18
30614;BME280;17381;51.690;5.270;2023-05-19T11:10:51;102486.31;;;22.15;36.65
30614;BME280;17381;51.690;5.270;2023-05-19T11:14:01;102473.31;;;22.26;37.06
30614;BME280;17381;51.690;5.270;2023-05-19T11:17:03;102477.91;;;22.41;37.55
30614;BME280;17381;51.690;5.270;2023-05-19T11:20:11;102474.00;;;22.49;36.74
30614;BME280;17381;51.690;5.270;2023-05-19T11:23:29;102476.31;;;22.37;35.47
30614;BME280;17381;51.690;5.270;2023-05-19T11:26:55;102468.59;;;22.31;35.65
30614;BME280;17381;51.690;5.270;2023-05-19T11:30:13;102453.56;;;22.46;35.38
30614;BME280;17381;51.690;5.270;2023-05-19T11:33:00;102476.69;;;22.83;33.99
30614;BME280;17381;51.690;5.270;2023-05-19T11:36:00;102469.69;;;22.98;35.23
30614;BME280;17381;51.690;5.270;2023-05-19T11:38:59;102476.56;;;23.04;34.44
30614;BME280;17381;51.690;5.270;2023-05-19T11:42:02;102466.34;;;23.28;36.96
30614;BME280;17381;51.690;5.270;2023-05-19T11:45:05;102454.13;;;23.56;37.19
30614;BME280;17381;51.690;5.270;2023-05-19T11:48:24;102446.22;;;23.86;34.51
30614;BME280;17381;51.690;5.270;2023-05-19T11:51:35;102432.91;;;23.67;34.80
30614;BME280;17381;51.690;5.270;2023-05-19T11:54:46;102453.47;;;24.00;34.55
30614;BME280;17381;51.690;5.270;2023-05-19T12:01:17;102444.03;;;24.08;31.24
30614;BME280;17381;51.690;5.270;2023-05-19T12:04:31;102433.63;;;24.18;34.46
30614;BME280;17381;51.690;5.270;2023-05-19T12:07:43;102454.41;;;24.46;32.76
30614;BME280;17381;51.690;5.270;2023-05-19T12:10:47;102444.63;;;24.45;33.01
30614;BME280;17381;51.690;5.270;2023-05-19T12:14:15;102446.59;;;24.42;33.70
30614;BME280;17381;51.690;5.270;2023-05-19T12:16:56;102441.50;;;24.37;32.30
30614;BME280;17381;51.690;5.270;2023-05-19T12:19:49;102439.16;;;24.31;31.36
30614;BME280;17381;51.690;5.270;2023-05-19T12:26:44;102446.50;;;24.43;34.03
30614;BME280;17381;51.690;5.270;2023-05-19T12:29:18;102452.38;;;24.66;33.87
30614;BME280;17381;51.690;5.270;2023-05-19T12:32:32;102447.63;;;24.85;33.78
30614;BME280;17381;51.690;5.270;2023-05-19T12:35:36;102445.50;;;24.76;32.42
30614;BME280;17381;51.690;5.270;2023-05-19T12:38:33;102432.59;;;24.67;33.07
30614;BME280;17381;51.690;5.270;2023-05-19T12:41:18;102440.25;;;24.58;30.16
30614;BME280;17381;51.690;5.270;2023-05-19T12:52:06;102423.63;;;24.36;31.82
30614;BME280;17381;51.690;5.270;2023-05-19T12:55:42;102419.56;;;24.45;32.30
30614;BME280;17381;51.690;5.270;2023-05-19T13:06:38;102412.47;;;24.28;31.77
30614;BME280;17381;51.690;5.270;2023-05-19T13:12:54;102404.34;;;23.98;29.97
30614;BME280;17381;51.690;5.270;2023-05-19T13:15:52;102394.19;;;23.71;31.37
30614;BME280;17381;51.690;5.270;2023-05-19T13:22:44;102406.22;;;23.64;32.43
30614;BME280;17381;51.690;5.270;2023-05-19T13:38:11;102389.19;;;23.97;32.55
30614;BME280;17381;51.690;5.270;2023-05-19T13:41:08;102371.41;;;24.10;32.62
30614;BME280;17381;51.690;5.270;2023-05-19T13:44:29;102383.09;;;24.55;33.73
30614;BME280;17381;51.690;5.270;2023-05-19T13:55:07;102367.81;;;25.84;29.48
30614;BME280;17381;51.690;5.270;2023-05-19T13:57:44;102354.28;;;25.99;29.33
30614;BME280;17381;51.690;5.270;2023-05-19T14:00:36;102366.38;;;26.06;29.44
30614;BME280;17381;51.690;5.270;2023-05-19T14:03:37;102369.34;;;26.16;29.38
30614;BME280;17381;51.690;5.270;2023-05-19T14:10:12;102363.00;;;26.29;29.81
30614;BME280;17381;51.690;5.270;2023-05-19T14:13:00;102366.78;;;26.40;32.04
30614;BME280;17381;51.690;5.270;2023-05-19T14:16:14;102367.53;;;26.29;29.21
30614;BME280;17381;51.690;5.270;2023-05-19T14:35:07;102350.66;;;26.65;29.27
30614;BME280;17381;51.690;5.270;2023-05-19T14:38:13;102344.28;;;26.53;29.97
30614;BME280;17381;51.690;5.270;2023-05-19T14:56:46;102342.59;;;26.78;29.40
30614;BME280;17381;51.690;5.270;2023-05-19T14:59:51;102342.25;;;26.70;28.72
30614;BME280;17381;51.690;5.270;2023-05-19T15:02:23;102337.50;;;26.73;28.64
30614;BME280;17381;51.690;5.270;2023-05-19T15:09:04;102326.50;;;26.64;28.58
30614;BME280;17381;51.690;5.270;2023-05-19T15:12:05;102325.72;;;26.49;28.20
30614;BME280;17381;51.690;5.270;2023-05-19T15:23:35;102320.66;;;25.77;28.94
30614;BME280;17381;51.690;5.270;2023-05-19T15:49:37;102288.13;;;25.80;30.53
30614;BME280;17381;51.690;5.270;2023-05-19T15:52:37;102299.47;;;26.13;29.55
30614;BME280;17381;51.690;5.270;2023-05-19T15:55:13;102307.41;;;26.14;30.96
30614;BME280;17381;51.690;5.270;2023-05-19T16:05:56;102285.91;;;25.18;28.84
30614;BME280;17381;51.690;5.270;2023-05-19T16:08:56;102297.53;;;25.19;29.05
30614;BME280;17381;51.690;5.270;2023-05-19T16:12:03;102291.22;;;25.20;29.58
30614;BME280;17381;51.690;5.270;2023-05-19T16:14:43;102287.22;;;25.11;30.46
30614;BME280;17381;51.690;5.270;2023-05-19T16:17:49;102289.84;;;25.13;29.05
30614;BME280;17381;51.690;5.270;2023-05-19T16:21:11;102289.25;;;25.08;29.65
30614;BME280;17381;51.690;5.270;2023-05-19T16:52:42;102279.69;;;23.54;30.73
30614;BME280;17381;51.690;5.270;2023-05-19T17:04:41;102279.84;;;22.54;31.20
30614;BME280;17381;51.690;5.270;2023-05-19T17:07:38;102280.41;;;22.26;32.18
30614;BME280;17381;51.690;5.270;2023-05-19T17:10:23;102281.00;;;22.14;32.01
30614;BME280;17381;51.690;5.270;2023-05-19T17:16:59;102288.66;;;21.68;32.28
30614;BME280;17381;51.690;5.270;2023-05-19T17:19:52;102285.50;;;21.60;32.58
30614;BME280;17381;51.690;5.270;2023-05-19T17:33:41;102282.94;;;21.39;34.21
30614;BME280;17381;51.690;5.270;2023-05-19T17:41:25;102287.84;;;21.10;32.90
30614;BME280;17381;51.690;5.270;2023-05-19T17:47:37;102277.75;;;20.78;33.40
30614;BME280;17381;51.690;5.270;2023-05-19T17:50:44;102283.53;;;20.68;33.75
30614;BME280;17381;51.690;5.270;2023-05-19T17:53:56;102275.78;;;20.62;34.29
30614;BME280;17381;51.690;5.270;2023-05-19T18:00:45;102284.69;;;20.63;34.92
30614;BME280;17381;51.690;5.270;2023-05-19T18:07:32;102279.22;;;20.44;35.19
30614;BME280;17381;51.690;5.270;2023-05-19T18:10:48;102285.66;;;20.40;35.08
30614;BME280;17381;51.690;5.270;2023-05-19T18:14:26;102287.06;;;20.28;35.14
30614;BME280;17381;51.690;5.270;2023-05-19T18:17:53;102298.22;;;20.17;35.97
30614;BME280;17381;51.690;5.270;2023-05-19T18:20:56;102284.72;;;20.20;36.36
30614;BME280;17381;51.690;5.270;2023-05-19T18:23:40;102293.13;;;20.11;36.21
30614;BME280;17381;51.690;5.270;2023-05-19T18:26:22;102289.66;;;20.09;36.49
30614;BME280;17381;51.690;5.270;2023-05-19T18:29:23;102288.72;;;20.10;36.74
30614;BME280;17381;51.690;5.270;2023-05-19T18:32:13;102295.84;;;20.10;36.96
30614;BME280;17381;51.690;5.270;2023-05-19T18:34:54;102299.66;;;20.04;36.59
30614;BME280;17381;51.690;5.270;2023-05-19T18:37:31;102290.16;;;19.97;36.65
30614;BME280;17381;51.690;5.270;2023-05-19T18:40:28;102291.47;;;19.87;36.58
30614;BME280;17381;51.690;5.270;2023-05-19T18:43:36;102302.28;;;19.83;36.40
30614;BME280;17381;51.690;5.270;2023-05-19T18:47:07;102296.53;;;19.72;36.93
30614;BME280;17381;51.690;5.270;2023-05-19T18:49:37;102299.66;;;19.60;37.06
30614;BME280;17381;51.690;5.270;2023-05-19T18:52:20;102314.44;;;19.69;37.25
30614;BME280;17381;51.690;5.270;2023-05-19T18:55:24;102312.88;;;19.63;37.38
30614;BME280;17381;51.690;5.270;2023-05-19T18:59:00;102314.81;;;19.59;37.20
30614;BME280;17381;51.690;5.270;2023-05-19T19:02:00;102306.41;;;19.47;37.34
30614;BME280;17381;51.690;5.270;2023-05-19T19:05:18;102321.75;;;19.42;37.64
30614;BME280;17381;51.690;5.270;2023-05-19T19:08:19;102322.91;;;19.34;37.98
30614;BME280;17381;51.690;5.270;2023-05-19T19:11:23;102319.72;;;19.25;38.13
30614;BME280;17381;51.690;5.270;2023-05-19T19:14:12;102315.59;;;19.16;38.38
30614;BME280;17381;51.690;5.270;2023-05-19T19:17:04;102326.47;;;19.10;38.58
30614;BME280;17381;51.690;5.270;2023-05-19T19:19:54;102326.59;;;19.07;38.87
30614;BME280;17381;51.690;5.270;2023-05-19T19:23:05;102331.31;;;19.00;38.90
30614;BME280;17381;51.690;5.270;2023-05-19T19:25:52;102335.25;;;18.90;39.51
30614;BME280;17381;51.690;5.270;2023-05-19T19:29:06;102298.66;;;18.68;39.37
30614;BME280;17381;51.690;5.270;2023-05-19T19:32:05;102324.94;;;18.79;39.66
30614;BME280;17381;51.690;5.270;2023-05-19T19:34:57;102346.06;;;18.85;39.47
30614;BME280;17381;51.690;5.270;2023-05-19T19:37:56;102353.59;;;18.72;39.82
30614;BME280;17381;51.690;5.270;2023-05-19T19:40:37;102355.56;;;18.67;40.09
30614;BME280;17381;51.690;5.270;2023-05-19T19:43:15;102355.81;;;18.60;40.04
30614;BME280;17381;51.690;5.270;2023-05-19T19:49:12;102365.28;;;18.43;39.86
30614;BME280;17381;51.690;5.270;2023-05-19T19:51:56;102362.69;;;18.40;40.41
30614;BME280;17381;51.690;5.270;2023-05-19T19:54:46;102363.16;;;18.26;40.39
30614;BME280;17381;51.690;5.270;2023-05-19T19:57:51;102381.75;;;18.28;40.54
30614;BME280;17381;51.690;5.270;2023-05-19T20:00:35;102389.81;;;18.25;40.59
30614;BME280;17381;51.690;5.270;2023-05-19T20:06:10;102391.88;;;18.17;40.91
30614;BME280;17381;51.690;5.270;2023-05-19T20:09:22;102386.56;;;18.17;41.36
30614;BME280;17381;51.690;5.270;2023-05-19T20:12:06;102385.91;;;18.10;41.45
30614;BME280;17381;51.690;5.270;2023-05-19T20:14:46;102385.09;;;18.06;41.40
30614;BME280;17381;51.690;5.270;2023-05-19T20:17:27;102389.56;;;18.06;41.43
30614;BME280;17381;51.690;5.270;2023-05-19T20:20:18;102388.91;;;17.99;41.81
30614;BME280;17381;51.690;5.270;2023-05-19T20:23:03;102384.59;;;17.95;41.93
30614;BME280;17381;51.690;5.270;2023-05-19T20:26:01;102377.00;;;17.83;42.08
30614;BME280;17381;51.690;5.270;2023-05-19T20:28:37;102387.47;;;17.89;42.65
30614;BME280;17381;51.690;5.270;2023-05-19T20:31:20;102371.78;;;17.80;42.69
30614;BME280;17381;51.690;5.270;2023-05-19T20:34:17;102348.47;;;17.58;42.72
30614;BME280;17381;51.690;5.270;2023-05-19T20:37:25;102345.13;;;17.52;43.09
30614;BME280;17381;51.690;5.270;2023-05-19T20:39:56;102388.06;;;17.67;42.90
30614;BME280;17381;51.690;5.270;2023-05-19T20:42:31;102390.84;;;17.64;43.14
30614;BME280;17381;51.690;5.270;2023-05-19T20:45:18;102383.13;;;17.55;43.23
30614;BME280;17381;51.690;5.270;2023-05-19T20:48:11;102304.16;;;16.99;43.31
30614;BME280;17381;51.690;5.270;2023-05-19T20:50:49;102383.63;;;17.38;43.41
30614;BME280;17381;51.690;5.270;2023-05-19T20:53:26;102394.16;;;17.43;43.55
30614;BME280;17381;51.690;5.270;2023-05-19T20:56:05;102389.00;;;17.37;43.68
30614;BME280;17381;51.690;5.270;2023-05-19T20:58:46;102397.06;;;17.34;43.67